Time;durP1;ratioP1;P1;durP2;ratioP2;P2;SDS_P1;SDS_P2;PMS_P1;PMS_P2;Temp;Humidity;BMP_temperature;BMP_pressure;BME280_temperature;BME280_humidity;BME280_pressure;Samples;Min_cycle;Max_cycle;Signal;HPM_P1;HPM_P2
2021/08/31 00:00:54;;;;;;;5.18;3.00;;;;;;;;;;5073008;28;20028;-78
2021/08/31 00:03:20;;;;;;;5.65;3.00;;;;;;;;;;5073282;28;20436;-78
2021/08/31 00:05:46;;;;;;;6.90;3.38;;;;;;;;;;5074676;28;20581;-78
2021/08/31 00:08:12;;;;;;;4.15;2.65;;;;;;;;;;5074519;28;20475;-78
2021/08/31 00:10:39;;;;;;;4.00;2.50;;;;;;;;;;5074618;28;20028;-78
2021/08/31 00:13:05;;;;;;;5.13;3.00;;;;;;;;;;5074735;28;20470;-78
2021/08/31 00:15:31;;;;;;;4.47;2.97;;;;;;;;;;5074467;28;20028;-77
2021/08/31 00:18:00;;;;;;;4.22;2.85;;;;;;;;;;5072834;28;20070;-78
2021/08/31 00:20:27;;;;;;;5.18;3.00;;;;;;;;;;5074041;28;20033;-75
2021/08/31 00:22:53;;;;;;;4.32;2.67;;;;;;;;;;5072919;28;20027;-77
2021/08/31 00:25:19;;;;;;;6.75;3.03;;;;;;;;;;5073147;28;20631;-78
2021/08/31 00:27:45;;;;;;;4.47;2.70;;;;;;;;;;5073022;28;20047;-78
2021/08/31 00:30:12;;;;;;;4.78;2.60;;;;;;;;;;5073021;28;20078;-79
2021/08/31 00:32:38;;;;;;;5.22;2.78;;;;;;;;;;5072931;28;20036;-76
2021/08/31 00:35:04;;;;;;;5.30;2.80;;;;;;;;;;5074287;28;20028;-77
2021/08/31 00:37:30;;;;;;;4.75;2.85;;;;;;;;;;5074208;28;20028;-77
2021/08/31 00:39:56;;;;;;;5.85;2.90;;;;;;;;;;5073791;28;20020;-77
2021/08/31 00:42:23;;;;;;;5.00;2.70;;;;;;;;;;5072392;28;20033;-78
2021/08/31 00:44:49;;;;;;;5.15;2.78;;;;;;;;;;5072526;28;20467;-77
2021/08/31 00:47:15;;;;;;;4.10;2.67;;;;;;;;;;5072238;28;20054;-77
2021/08/31 00:49:41;;;;;;;7.82;3.28;;;;;;;;;;5074269;28;20043;-76
2021/08/31 00:52:08;;;;;;;4.97;2.65;;;;;;;;;;5074098;28;20040;-77
2021/08/31 00:54:34;;;;;;;4.32;2.50;;;;;;;;;;5073706;28;20023;-77
2021/08/31 00:57:01;;;;;;;7.25;2.90;;;;;;;;;;5073499;28;20059;-77
2021/08/31 00:59:27;;;;;;;5.13;2.80;;;;;;;;;;5073448;28;20024;-76
2021/08/31 01:01:56;;;;;;;4.18;2.50;;;;;;;;;;5073675;28;20029;-77
2021/08/31 01:04:29;;;;;;;4.93;2.60;;;;;;;;;;5073655;28;20108;-78
2021/08/31 01:06:56;;;;;;;5.18;2.83;;;;;;;;;;5073688;28;20024;-76
2021/08/31 01:09:22;;;;;;;4.10;2.45;;;;;;;;;;5073194;28;20100;-76
2021/08/31 01:11:49;;;;;;;3.33;1.95;;;;;;;;;;5073283;28;20067;-77
2021/08/31 01:14:16;;;;;;;4.35;2.42;;;;;;;;;;5073423;28;20044;-77
2021/08/31 01:16:42;;;;;;;4.60;2.70;;;;;;;;;;5073127;28;20032;-77
2021/08/31 01:19:08;;;;;;;4.22;2.72;;;;;;;;;;5073049;28;20028;-77
2021/08/31 01:21:34;;;;;;;4.20;2.63;;;;;;;;;;5073231;28;20043;-77
2021/08/31 01:24:01;;;;;;;4.53;2.60;;;;;;;;;;5073205;28;20025;-77
2021/08/31 01:26:30;;;;;;;4.50;2.70;;;;;;;;;;5072875;28;20056;-77
2021/08/31 01:28:56;;;;;;;4.45;2.60;;;;;;;;;;5072868;28;20032;-76
2021/08/31 01:31:22;;;;;;;3.97;2.35;;;;;;;;;;5071498;28;20024;-77
2021/08/31 01:33:49;;;;;;;5.55;2.65;;;;;;;;;;5072806;28;20024;-78
2021/08/31 01:36:15;;;;;;;3.30;2.13;;;;;;;;;;5072882;28;20096;-78
2021/08/31 01:38:42;;;;;;;5.32;2.22;;;;;;;;;;5072926;28;20017;-78
2021/08/31 01:41:08;;;;;;;3.95;2.30;;;;;;;;;;5071366;28;20139;-76
2021/08/31 01:43:34;;;;;;;4.50;2.50;;;;;;;;;;5072605;28;20028;-77
2021/08/31 01:46:00;;;;;;;5.47;2.58;;;;;;;;;;5071933;28;20028;-78
2021/08/31 01:48:27;;;;;;;4.13;2.42;;;;;;;;;;5072399;28;20017;-77
2021/08/31 01:50:53;;;;;;;4.10;2.38;;;;;;;;;;5071312;28;20052;-77
2021/08/31 01:53:19;;;;;;;3.72;2.25;;;;;;;;;;5071169;28;20078;-77
2021/08/31 01:55:45;;;;;;;6.15;2.70;;;;;;;;;;5072354;28;20048;-77
2021/08/31 01:58:11;;;;;;;4.60;2.50;;;;;;;;;;5072569;28;20029;-77
2021/08/31 02:00:37;;;;;;;4.70;2.60;;;;;;;;;;5068773;28;20037;-77
2021/08/31 02:03:03;;;;;;;4.00;2.33;;;;;;;;;;5067926;28;20032;-77
2021/08/31 02:05:29;;;;;;;5.75;2.30;;;;;;;;;;5081985;28;20420;-77
2021/08/31 02:07:55;;;;;;;3.83;2.08;;;;;;;;;;5068891;28;20487;-78
2021/08/31 02:10:22;;;;;;;4.40;2.40;;;;;;;;;;5068523;28;20032;-76
2021/08/31 02:12:48;;;;;;;6.50;2.40;;;;;;;;;;5067594;28;20016;-77
2021/08/31 02:15:14;;;;;;;5.50;2.55;;;;;;;;;;5069475;28;20035;-77
2021/08/31 02:17:40;;;;;;;4.75;2.40;;;;;;;;;;5068368;28;20047;-77
2021/08/31 02:20:07;;;;;;;5.75;2.53;;;;;;;;;;5067294;28;20028;-76
2021/08/31 02:22:33;;;;;;;4.95;2.08;;;;;;;;;;5068644;28;20028;-77
2021/08/31 02:24:59;;;;;;;5.05;2.20;;;;;;;;;;5067759;28;20082;-77
2021/08/31 02:27:25;;;;;;;3.72;2.42;;;;;;;;;;5084349;28;20084;-78
2021/08/31 02:29:51;;;;;;;4.15;2.25;;;;;;;;;;5068608;28;20028;-77
2021/08/31 02:32:17;;;;;;;4.68;2.17;;;;;;;;;;5068334;28;20203;-77
2021/08/31 02:34:43;;;;;;;4.47;2.30;;;;;;;;;;5067387;28;20040;-77
2021/08/31 02:37:09;;;;;;;3.28;2.03;;;;;;;;;;5068246;28;20024;-77
2021/08/31 02:39:35;;;;;;;5.30;2.00;;;;;;;;;;5069251;28;20486;-77
2021/08/31 02:42:01;;;;;;;5.80;2.60;;;;;;;;;;5068849;28;20043;-77
2021/08/31 02:44:27;;;;;;;4.40;2.10;;;;;;;;;;5067246;28;20021;-77
2021/08/31 02:46:53;;;;;;;4.43;2.55;;;;;;;;;;5068346;28;20039;-77
2021/08/31 02:49:19;;;;;;;4.97;2.28;;;;;;;;;;5069140;28;20021;-76
2021/08/31 02:51:45;;;;;;;4.15;2.13;;;;;;;;;;5067957;28;20090;-75
2021/08/31 02:54:12;;;;;;;3.80;2.10;;;;;;;;;;5067134;28;20070;-77
2021/08/31 02:56:38;;;;;;;3.58;2.28;;;;;;;;;;5067165;28;20045;-76
2021/08/31 02:59:05;;;;;;;4.18;2.20;;;;;;;;;;5070214;28;20111;-77
2021/08/31 03:01:35;;;;;;;4.18;2.17;;;;;;;;;;5071295;28;20032;-77
2021/08/31 03:04:01;;;;;;;3.17;1.88;;;;;;;;;;5080789;28;20092;-76
2021/08/31 03:06:28;;;;;;;3.65;1.85;;;;;;;;;;5072850;28;20028;-77
2021/08/31 03:08:54;;;;;;;3.20;1.65;;;;;;;;;;5072013;28;20028;-76
2021/08/31 03:11:20;;;;;;;3.72;2.08;;;;;;;;;;5070975;28;20021;-77
2021/08/31 03:13:46;;;;;;;3.53;1.92;;;;;;;;;;5070432;28;20046;-77
2021/08/31 03:16:12;;;;;;;3.72;2.05;;;;;;;;;;5072148;28;20661;-76
2021/08/31 03:18:38;;;;;;;3.83;1.92;;;;;;;;;;5070777;28;20086;-76
2021/08/31 03:21:05;;;;;;;3.75;2.00;;;;;;;;;;5070273;28;20036;-76
2021/08/31 03:23:31;;;;;;;3.40;2.08;;;;;;;;;;5071817;28;20094;-76
2021/08/31 03:25:57;;;;;;;3.70;2.13;;;;;;;;;;5072389;28;20107;-77
2021/08/31 03:28:23;;;;;;;3.20;1.92;;;;;;;;;;5071957;28;20032;-76
2021/08/31 03:30:49;;;;;;;3.85;1.98;;;;;;;;;;5070394;28;20032;-77
2021/08/31 03:33:15;;;;;;;3.35;1.77;;;;;;;;;;5071702;28;20086;-77
2021/08/31 03:35:41;;;;;;;3.50;1.77;;;;;;;;;;5070321;28;20411;-77
2021/08/31 03:38:08;;;;;;;8.52;2.00;;;;;;;;;;5072765;28;20584;-76
2021/08/31 03:40:34;;;;;;;3.50;2.20;;;;;;;;;;5071480;28;20033;-77
2021/08/31 03:43:00;;;;;;;4.10;2.00;;;;;;;;;;5071598;28;20063;-77
2021/08/31 03:45:26;;;;;;;3.28;1.63;;;;;;;;;;5071436;28;20077;-77
2021/08/31 03:47:52;;;;;;;4.05;1.88;;;;;;;;;;5071799;28;20501;-76
2021/08/31 03:50:18;;;;;;;5.70;2.03;;;;;;;;;;5072337;28;20017;-77
2021/08/31 03:52:45;;;;;;;7.13;1.80;;;;;;;;;;5070415;28;20024;-77
2021/08/31 03:55:11;;;;;;;5.55;2.00;;;;;;;;;;5069565;28;20103;-77
2021/08/31 03:57:37;;;;;;;4.55;2.05;;;;;;;;;;5069369;28;20073;-77
2021/08/31 04:00:04;;;;;;;6.85;2.00;;;;;;;;;;5070686;28;20036;-77
2021/08/31 04:02:30;;;;;;;4.03;1.88;;;;;;;;;;5070460;28;20016;-76
2021/08/31 04:04:56;;;;;;;4.63;2.40;;;;;;;;;;5070209;28;20054;-77
2021/08/31 04:07:22;;;;;;;4.78;1.65;;;;;;;;;;5070047;28;20026;-76
2021/08/31 04:09:48;;;;;;;3.88;1.90;;;;;;;;;;5068486;28;20119;-77
2021/08/31 04:12:14;;;;;;;5.20;1.95;;;;;;;;;;5070564;28;20498;-78
2021/08/31 04:14:40;;;;;;;3.83;1.80;;;;;;;;;;5070119;28;20031;-77
2021/08/31 04:17:06;;;;;;;3.20;1.75;;;;;;;;;;5069871;28;20028;-78
2021/08/31 04:19:32;;;;;;;4.35;1.70;;;;;;;;;;5068013;28;20103;-77
2021/08/31 04:21:59;;;;;;;4.22;2.10;;;;;;;;;;5070095;28;20029;-78
2021/08/31 04:24:25;;;;;;;3.50;1.98;;;;;;;;;;5066922;28;20029;-78
2021/08/31 04:26:52;;;;;;;2.72;1.42;;;;;;;;;;5069981;28;20035;-77
2021/08/31 04:29:18;;;;;;;3.85;2.00;;;;;;;;;;5068286;28;20647;-78
2021/08/31 04:31:44;;;;;;;2.75;1.52;;;;;;;;;;5068067;28;20108;-77
2021/08/31 04:34:10;;;;;;;3.45;1.70;;;;;;;;;;5069786;28;20051;-77
2021/08/31 04:36:36;;;;;;;5.88;1.92;;;;;;;;;;5068486;28;20036;-78
2021/08/31 04:39:03;;;;;;;3.70;1.75;;;;;;;;;;5069464;28;20059;-78
2021/08/31 04:41:29;;;;;;;3.88;1.90;;;;;;;;;;5067888;28;20072;-77
2021/08/31 04:43:55;;;;;;;5.93;1.92;;;;;;;;;;5067821;28;20024;-77
2021/08/31 04:46:21;;;;;;;5.03;2.00;;;;;;;;;;5066859;28;20599;-77
2021/08/31 04:48:47;;;;;;;3.72;1.90;;;;;;;;;;5068653;28;20028;-76
2021/08/31 04:51:13;;;;;;;4.20;1.90;;;;;;;;;;5067876;28;20021;-77
2021/08/31 04:53:39;;;;;;;3.75;1.70;;;;;;;;;;5069260;28;20024;-78
2021/08/31 04:56:05;;;;;;;3.03;1.65;;;;;;;;;;5022432;28;1303732;-77
2021/08/31 04:58:31;;;;;;;6.55;2.20;;;;;;;;;;5067999;28;20568;-77
2021/08/31 05:00:57;;;;;;;4.00;1.92;;;;;;;;;;5077213;28;20522;-78
2021/08/31 05:03:24;;;;;;;3.17;1.70;;;;;;;;;;5069755;28;20016;-78
2021/08/31 05:05:50;;;;;;;3.70;1.83;;;;;;;;;;5069720;28;20017;-78
2021/08/31 05:08:16;;;;;;;4.38;1.70;;;;;;;;;;5069832;28;20048;-77
2021/08/31 05:10:42;;;;;;;4.47;1.63;;;;;;;;;;5069908;28;20029;-77
2021/08/31 05:13:08;;;;;;;3.20;1.70;;;;;;;;;;5069973;28;20029;-77
2021/08/31 05:15:34;;;;;;;3.22;1.75;;;;;;;;;;5070257;28;20067;-77
2021/08/31 05:18:00;;;;;;;3.70;1.80;;;;;;;;;;5069676;28;20387;-76
2021/08/31 05:20:28;;;;;;;4.72;1.70;;;;;;;;;;5069211;28;20035;-78
2021/08/31 05:22:54;;;;;;;3.15;1.58;;;;;;;;;;5078581;28;20028;-79
2021/08/31 05:25:20;;;;;;;4.00;1.70;;;;;;;;;;5068383;28;20024;-77
2021/08/31 05:27:46;;;;;;;3.25;1.67;;;;;;;;;;5068992;28;20019;-78
2021/08/31 05:30:13;;;;;;;3.80;1.80;;;;;;;;;;5069622;28;20032;-78
2021/08/31 05:32:39;;;;;;;4.75;2.22;;;;;;;;;;5067870;28;20074;-77
2021/08/31 05:35:05;;;;;;;3.72;1.70;;;;;;;;;;5070003;28;20648;-79
2021/08/31 05:37:31;;;;;;;3.22;1.60;;;;;;;;;;5067818;28;20484;-76
2021/08/31 05:39:57;;;;;;;3.30;1.90;;;;;;;;;;5067719;28;20032;-78
2021/08/31 05:42:24;;;;;;;3.00;1.80;;;;;;;;;;5069140;28;20028;-77
2021/08/31 05:44:50;;;;;;;3.05;1.75;;;;;;;;;;5068085;28;20023;-77
2021/08/31 05:47:16;;;;;;;4.50;1.90;;;;;;;;;;5073457;28;20024;-78
2021/08/31 05:49:42;;;;;;;3.25;1.63;;;;;;;;;;5069227;28;20086;-78
2021/08/31 05:52:10;;;;;;;2.72;1.50;;;;;;;;;;5068853;28;20040;-78
2021/08/31 05:54:36;;;;;;;4.22;1.60;;;;;;;;;;5068485;28;20050;-78
2021/08/31 05:57:06;;;;;;;2.70;1.40;;;;;;;;;;5082268;28;20121;-76
2021/08/31 05:59:32;;;;;;;4.45;1.70;;;;;;;;;;5068923;28;20021;-79
2021/08/31 06:01:58;;;;;;;2.90;1.50;;;;;;;;;;5069096;28;20028;-78
2021/08/31 06:04:25;;;;;;;3.10;1.45;;;;;;;;;;5066709;28;20540;-78
2021/08/31 06:06:51;;;;;;;3.28;1.80;;;;;;;;;;5068672;28;20028;-78
2021/08/31 06:09:17;;;;;;;3.53;1.63;;;;;;;;;;5069531;28;20103;-75
2021/08/31 06:11:44;;;;;;;2.95;1.48;;;;;;;;;;5068478;28;20017;-78
2021/08/31 06:14:10;;;;;;;2.92;1.60;;;;;;;;;;5068270;28;20016;-79
2021/08/31 06:16:37;;;;;;;3.75;1.70;;;;;;;;;;5068080;28;20074;-77
2021/08/31 06:19:03;;;;;;;2.92;1.42;;;;;;;;;;5068711;28;20065;-75
2021/08/31 06:21:30;;;;;;;2.53;1.30;;;;;;;;;;5068741;28;20029;-78
2021/08/31 06:23:57;;;;;;;3.38;1.60;;;;;;;;;;5068473;28;20028;-77
2021/08/31 06:26:23;;;;;;;2.78;1.40;;;;;;;;;;5068288;28;20032;-78
2021/08/31 06:28:49;;;;;;;5.10;1.83;;;;;;;;;;5068873;28;20024;-79
2021/08/31 06:31:15;;;;;;;2.83;1.40;;;;;;;;;;5067411;28;20576;-78
2021/08/31 06:33:45;;;;;;;3.88;1.63;;;;;;;;;;5077220;28;20059;-78
2021/08/31 06:36:11;;;;;;;4.32;1.73;;;;;;;;;;5076123;28;20109;-79
2021/08/31 06:38:37;;;;;;;3.72;1.60;;;;;;;;;;5068096;28;20032;-79
2021/08/31 06:41:04;;;;;;;4.05;1.80;;;;;;;;;;5065478;28;20036;-77
2021/08/31 06:43:31;;;;;;;3.28;1.60;;;;;;;;;;5068761;28;20403;-78
2021/08/31 06:45:57;;;;;;;4.05;1.60;;;;;;;;;;5081571;28;20025;-77
2021/08/31 06:48:23;;;;;;;3.20;1.60;;;;;;;;;;5068603;28;20024;-78
2021/08/31 06:50:49;;;;;;;2.35;1.27;;;;;;;;;;5068098;28;20029;-77
2021/08/31 06:53:15;;;;;;;2.88;1.48;;;;;;;;;;5066433;28;20020;-76
2021/08/31 06:55:41;;;;;;;2.60;1.42;;;;;;;;;;5068329;28;20052;-76
2021/08/31 06:58:08;;;;;;;3.70;1.58;;;;;;;;;;5065121;28;20025;-76
2021/08/31 07:00:34;;;;;;;2.97;1.52;;;;;;;;;;5067234;28;20382;-77
2021/08/31 07:03:00;;;;;;;3.38;1.40;;;;;;;;;;5067091;28;20372;-77
2021/08/31 07:05:26;;;;;;;2.92;1.20;;;;;;;;;;5068246;28;20087;-77
2021/08/31 07:07:52;;;;;;;2.83;1.00;;;;;;;;;;5066929;28;20071;-76
2021/08/31 07:10:19;;;;;;;3.35;1.13;;;;;;;;;;5068421;28;20097;-76
2021/08/31 07:12:45;;;;;;;1.75;1.02;;;;;;;;;;5067085;28;20027;-78
2021/08/31 07:15:11;;;;;;;2.92;1.25;;;;;;;;;;5067656;28;20029;-77
2021/08/31 07:17:38;;;;;;;2.40;1.10;;;;;;;;;;5066369;28;20024;-78
2021/08/31 07:20:05;;;;;;;2.58;1.13;;;;;;;;;;5068688;28;20107;-77
2021/08/31 07:22:31;;;;;;;2.90;1.10;;;;;;;;;;5068103;28;20543;-77
2021/08/31 07:24:57;;;;;;;3.35;1.10;;;;;;;;;;5067822;28;20024;-79
2021/08/31 07:27:23;;;;;;;2.60;1.10;;;;;;;;;;5067951;28;20108;-77
2021/08/31 07:29:50;;;;;;;2.38;1.02;;;;;;;;;;5067776;28;20491;-79
2021/08/31 07:32:16;;;;;;;1.42;0.90;;;;;;;;;;5068440;28;20021;-77
2021/08/31 07:34:42;;;;;;;2.38;0.90;;;;;;;;;;5068115;28;20097;-78
2021/08/31 07:37:09;;;;;;;2.00;1.00;;;;;;;;;;5066672;28;20037;-76
2021/08/31 07:39:35;;;;;;;2.88;1.08;;;;;;;;;;5068000;28;20035;-77
2021/08/31 07:42:01;;;;;;;1.67;0.90;;;;;;;;;;5066715;28;20070;-77
2021/08/31 07:44:27;;;;;;;1.45;0.88;;;;;;;;;;5070312;28;20518;-76
2021/08/31 07:46:53;;;;;;;1.65;0.82;;;;;;;;;;5071089;28;20593;-77
2021/08/31 07:49:20;;;;;;;1.67;0.88;;;;;;;;;;5069911;28;20055;-75
2021/08/31 07:51:46;;;;;;;2.40;1.00;;;;;;;;;;5071022;28;20043;-78
2021/08/31 07:54:13;;;;;;;1.77;0.77;;;;;;;;;;5082538;28;20052;-78
2021/08/31 07:56:39;;;;;;;2.10;0.80;;;;;;;;;;5070771;28;20059;-75
2021/08/31 07:59:05;;;;;;;8.98;1.10;;;;;;;;;;5063718;28;20024;-77
2021/08/31 08:01:32;;;;;;;4.00;1.00;;;;;;;;;;5074354;28;20036;-77
2021/08/31 08:03:58;;;;;;;1.98;0.90;;;;;;;;;;5074444;28;20024;-83
2021/08/31 08:06:25;;;;;;;6.22;1.08;;;;;;;;;;5073706;28;20025;-83
2021/08/31 08:08:51;;;;;;;2.60;1.00;;;;;;;;;;5075022;28;20473;-82
2021/08/31 08:11:17;;;;;;;2.15;1.02;;;;;;;;;;5074739;28;20032;-82
2021/08/31 08:13:43;;;;;;;1.92;0.98;;;;;;;;;;5074275;28;20013;-80
2021/08/31 08:16:09;;;;;;;2.65;1.23;;;;;;;;;;5074415;28;20502;-82
2021/08/31 08:18:35;;;;;;;3.45;1.30;;;;;;;;;;5073276;28;20028;-84
2021/08/31 08:21:01;;;;;;;2.58;0.93;;;;;;;;;;5073664;28;20033;-81
2021/08/31 08:23:28;;;;;;;4.05;1.30;;;;;;;;;;5075691;28;20020;-84
2021/08/31 08:25:54;;;;;;;2.90;1.05;;;;;;;;;;5073397;28;20020;-84
2021/08/31 08:28:21;;;;;;;3.80;1.10;;;;;;;;;;5074371;28;20020;-82
2021/08/31 08:30:48;;;;;;;6.13;1.10;;;;;;;;;;5073994;28;20064;-78
2021/08/31 08:33:14;;;;;;;3.20;1.40;;;;;;;;;;5073519;28;20028;-77
2021/08/31 08:35:40;;;;;;;4.35;2.08;;;;;;;;;;5073885;28;20107;-78
2021/08/31 08:38:06;;;;;;;4.65;1.52;;;;;;;;;;5073801;28;20017;-77
2021/08/31 08:40:35;;;;;;;3.58;1.60;;;;;;;;;;5072389;28;20126;-78
2021/08/31 08:43:02;;;;;;;3.53;1.50;;;;;;;;;;5073825;28;20479;-77
2021/08/31 08:45:28;;;;;;;3.25;1.27;;;;;;;;;;5072484;28;20033;-82
2021/08/31 08:47:55;;;;;;;3.35;1.50;;;;;;;;;;5054809;28;20024;-81
2021/08/31 08:50:21;;;;;;;4.25;1.52;;;;;;;;;;5053411;28;20700;-79
2021/08/31 08:52:47;;;;;;;4.25;1.20;;;;;;;;;;5069181;28;20019;-79
2021/08/31 08:55:13;;;;;;;4.68;1.63;;;;;;;;;;5071937;28;20041;-76
2021/08/31 08:57:40;;;;;;;4.72;1.42;;;;;;;;;;5071867;28;20499;-76
2021/08/31 09:00:07;;;;;;;4.03;1.70;;;;;;;;;;5073315;28;20032;-79
2021/08/31 09:02:42;;;;;;;2.70;1.30;;;;;;;;;;5073554;28;20032;-81
2021/08/31 09:05:10;;;;;;;4.05;1.77;;;;;;;;;;5072050;28;20466;-80
2021/08/31 09:07:37;;;;;;;3.17;1.58;;;;;;;;;;5073208;28;20020;-78
2021/08/31 09:10:12;;;;;;;3.13;1.40;;;;;;;;;;5073323;28;20025;-80
2021/08/31 09:12:39;;;;;;;3.22;1.65;;;;;;;;;;5073237;28;20376;-81
2021/08/31 09:15:23;;;;;;;2.85;1.40;;;;;;;;;;5073208;28;20240;-81
2021/08/31 09:18:11;;;;;;;2.85;1.55;;;;;;;;;;5073030;28;20100;-81
2021/08/31 09:21:02;;;;;;;3.90;1.55;;;;;;;;;;5073110;28;20039;-79
2021/08/31 09:23:37;;;;;;;3.33;1.50;;;;;;;;;;5065457;28;20036;-78
2021/08/31 09:26:08;;;;;;;2.17;1.20;;;;;;;;;;5072847;28;20027;-77
2021/08/31 09:28:36;;;;;;;2.63;1.52;;;;;;;;;;5071658;28;20060;-76
2021/08/31 09:31:07;;;;;;;3.67;1.98;;;;;;;;;;5071646;28;20044;-78
2021/08/31 09:33:37;;;;;;;3.35;1.83;;;;;;;;;;5071749;28;20357;-85
2021/08/31 09:36:09;;;;;;;3.20;1.67;;;;;;;;;;5072608;28;20024;-81
2021/08/31 09:38:44;;;;;;;4.57;1.60;;;;;;;;;;5073299;28;20020;-82
2021/08/31 09:41:11;;;;;;;4.05;1.80;;;;;;;;;;5071592;28;20492;-81
2021/08/31 09:43:47;;;;;;;4.07;1.48;;;;;;;;;;5071764;28;20507;-79
2021/08/31 09:46:13;;;;;;;2.92;1.48;;;;;;;;;;5072756;28;20111;-79
2021/08/31 09:48:41;;;;;;;4.43;1.60;;;;;;;;;;5071355;28;20024;-78
2021/08/31 09:51:11;;;;;;;4.47;1.40;;;;;;;;;;5072415;28;20020;-77
2021/08/31 09:53:37;;;;;;;3.72;1.67;;;;;;;;;;5083610;28;20358;-76
2021/08/31 09:56:03;;;;;;;2.38;1.20;;;;;;;;;;5092430;28;20059;-78
2021/08/31 09:58:30;;;;;;;3.53;1.45;;;;;;;;;;5092653;28;20028;-79
2021/08/31 10:00:56;;;;;;;2.47;1.35;;;;;;;;;;5091070;28;20506;-80
2021/08/31 10:03:24;;;;;;;2.90;1.50;;;;;;;;;;5091115;28;20028;-80
2021/08/31 10:05:51;;;;;;;2.63;1.38;;;;;;;;;;5092265;28;20107;-79
2021/08/31 10:08:18;;;;;;;2.50;1.23;;;;;;;;;;5090756;28;20024;-79
2021/08/31 10:10:45;;;;;;;3.28;1.25;;;;;;;;;;5092227;28;20016;-78
2021/08/31 10:13:12;;;;;;;2.38;1.30;;;;;;;;;;5090953;28;20012;-76
2021/08/31 10:15:45;;;;;;;3.47;1.40;;;;;;;;;;5092135;28;20020;-77
2021/08/31 10:18:12;;;;;;;3.22;1.50;;;;;;;;;;5092238;28;20043;-78
2021/08/31 10:20:43;;;;;;;3.00;1.40;;;;;;;;;;5092147;28;20024;-82
2021/08/31 10:23:09;;;;;;;3.60;1.40;;;;;;;;;;5091081;28;20020;-80
2021/08/31 10:25:35;;;;;;;3.63;1.50;;;;;;;;;;5090801;28;20670;-77
2021/08/31 10:28:02;;;;;;;2.72;1.33;;;;;;;;;;5090777;28;20054;-79
2021/08/31 10:30:30;;;;;;;2.92;1.30;;;;;;;;;;5092096;28;20072;-79
2021/08/31 10:33:00;;;;;;;2.85;1.50;;;;;;;;;;5092219;28;20103;-77
2021/08/31 10:35:30;;;;;;;3.38;1.50;;;;;;;;;;5090781;28;20107;-81
2021/08/31 10:37:57;;;;;;;12.88;1.70;;;;;;;;;;5090597;28;20051;-78
2021/08/31 10:40:34;;;;;;;5.15;1.58;;;;;;;;;;5092195;28;20064;-73
2021/08/31 10:43:00;;;;;;;17.83;1.65;;;;;;;;;;5090941;28;20020;-83
2021/08/31 10:45:37;;;;;;;5.72;1.30;;;;;;;;;;5090567;28;20563;-78
2021/08/31 10:48:24;;;;;;;7.57;1.23;;;;;;;;;;5090647;28;20027;-77
2021/08/31 10:50:50;;;;;;;45.35;3.15;;;;;;;;;;5089327;28;20070;-67
2021/08/31 10:53:35;;;;;;;19.73;1.88;;;;;;;;;;5080759;28;20073;-68
2021/08/31 10:56:25;;;;;;;7.43;1.75;;;;;;;;;;5091495;28;20048;-67
2021/08/31 10:58:55;;;;;;;16.33;1.77;;;;;;;;;;5091779;28;20024;-68
2021/08/31 11:01:25;;;;;;;10.90;1.63;;;;;;;;;;5090192;28;20075;-69
2021/08/31 11:03:52;;;;;;;11.77;1.48;;;;;;;;;;5090243;28;20374;-69
2021/08/31 11:06:20;;;;;;;9.95;1.40;;;;;;;;;;5090033;28;20099;-70
2021/08/31 11:09:22;;;;;;;6.95;1.52;;;;;;;;;;5091390;28;20020;-70
2021/08/31 11:11:51;;;;;;;10.40;1.50;;;;;;;;;;5049050;28;20076;-70
2021/08/31 11:14:18;;;;;;;4.85;1.15;;;;;;;;;;5079066;28;20060;-68
2021/08/31 11:16:47;;;;;;;21.38;2.05;;;;;;;;;;5091742;28;20537;-73
2021/08/31 11:19:28;;;;;;;13.00;1.80;;;;;;;;;;5093213;28;20059;-69
2021/08/31 11:21:55;;;;;;;19.27;2.22;;;;;;;;;;5095372;28;20364;-70
2021/08/31 11:24:21;;;;;;;9.32;2.08;;;;;;;;;;5095513;28;20016;-70
2021/08/31 11:26:47;;;;;;;12.25;1.52;;;;;;;;;;5095715;28;20020;-69
2021/08/31 11:29:14;;;;;;;11.18;1.60;;;;;;;;;;5095541;28;20111;-68
2021/08/31 11:31:40;;;;;;;17.25;2.47;;;;;;;;;;5095501;28;20048;-68
2021/08/31 11:34:12;;;;;;;10.82;1.67;;;;;;;;;;5093940;28;20386;-70
2021/08/31 11:36:42;;;;;;;11.95;1.80;;;;;;;;;;5095210;28;20498;-68
2021/08/31 11:39:10;;;;;;;7.00;1.58;;;;;;;;;;5094932;28;20050;-69
2021/08/31 11:41:36;;;;;;;11.52;1.60;;;;;;;;;;5093973;28;20024;-70
2021/08/31 11:44:16;;;;;;;8.07;1.67;;;;;;;;;;5092102;28;20099;-69
2021/08/31 11:46:42;;;;;;;3.97;1.50;;;;;;;;;;5074866;28;20082;-70
2021/08/31 11:49:21;;;;;;;10.23;1.40;;;;;;;;;;5074685;28;20088;-70
2021/08/31 11:51:59;;;;;;;8.32;1.60;;;;;;;;;;5074308;28;20028;-70
2021/08/31 11:54:26;;;;;;;5.10;1.23;;;;;;;;;;5074392;28;20040;-69
2021/08/31 11:56:56;;;;;;;4.63;1.30;;;;;;;;;;5072748;28;20045;-69
2021/08/31 11:59:35;;;;;;;3.67;1.20;;;;;;;;;;5074645;28;20048;-69
2021/08/31 12:02:19;;;;;;;8.20;1.30;;;;;;;;;;5074546;28;20514;-69
2021/08/31 12:05:06;;;;;;;4.45;0.98;;;;;;;;;;5073414;28;20020;-70
2021/08/31 12:07:44;;;;;;;4.53;1.13;;;;;;;;;;5072812;28;20017;-70
2021/08/31 12:10:21;;;;;;;3.50;1.30;;;;;;;;;;5073026;28;20031;-70
2021/08/31 12:12:47;;;;;;;2.35;1.02;;;;;;;;;;5074319;28;20113;-70
2021/08/31 12:15:14;;;;;;;2.72;1.08;;;;;;;;;;5074255;28;20067;-70
2021/08/31 12:17:47;;;;;;;2.13;1.00;;;;;;;;;;5074375;28;20101;-68
2021/08/31 12:20:15;;;;;;;3.95;1.17;;;;;;;;;;5074012;28;20056;-68
2021/08/31 12:22:46;;;;;;;2.85;1.10;;;;;;;;;;5074090;28;20025;-69
2021/08/31 12:25:13;;;;;;;3.88;1.10;;;;;;;;;;5072981;28;20618;-68
2021/08/31 12:27:48;;;;;;;3.70;1.00;;;;;;;;;;5073990;28;20491;-68
2021/08/31 12:30:16;;;;;;;4.28;1.20;;;;;;;;;;5072526;28;20032;-68
2021/08/31 12:32:43;;;;;;;3.90;1.02;;;;;;;;;;5074085;28;20027;-67
2021/08/31 12:35:26;;;;;;;3.67;1.15;;;;;;;;;;5073795;28;20035;-69
2021/08/31 12:38:08;;;;;;;1.92;1.00;;;;;;;;;;5073767;28;20005;-68
2021/08/31 12:40:36;;;;;;;3.08;1.00;;;;;;;;;;5073535;28;20033;-69
2021/08/31 12:43:11;;;;;;;2.75;1.10;;;;;;;;;;5072190;28;20379;-68
2021/08/31 12:45:38;;;;;;;3.28;1.08;;;;;;;;;;5073655;28;20074;-68
2021/08/31 12:48:04;;;;;;;5.15;1.30;;;;;;;;;;5071478;28;20021;-69
2021/08/31 12:50:31;;;;;;;2.97;1.33;;;;;;;;;;5074156;28;20025;-69
2021/08/31 12:53:01;;;;;;;3.47;0.93;;;;;;;;;;5080763;28;20150;-68
2021/08/31 12:55:31;;;;;;;6.68;1.05;;;;;;;;;;5094249;28;20028;-68
2021/08/31 12:58:16;;;;;;;2.92;1.02;;;;;;;;;;5093813;28;20028;-68
2021/08/31 13:00:42;;;;;;;2.28;1.10;;;;;;;;;;5093530;28;20059;-68
2021/08/31 13:03:08;;;;;;;2.60;1.00;;;;;;;;;;5092642;28;20378;-69
2021/08/31 13:05:34;;;;;;;4.57;1.63;;;;;;;;;;5093658;28;20111;-68
2021/08/31 13:08:04;;;;;;;7.03;2.30;;;;;;;;;;5093648;28;20031;-68
2021/08/31 13:10:30;;;;;;;7.38;2.67;;;;;;;;;;5091970;28;20161;-68
2021/08/31 13:12:56;;;;;;;7.70;2.38;;;;;;;;;;5093340;28;20024;-70
2021/08/31 13:15:22;;;;;;;11.05;3.00;;;;;;;;;;5092266;28;20077;-70
2021/08/31 13:17:48;;;;;;;7.90;2.50;;;;;;;;;;5091921;28;20054;-70
2021/08/31 13:20:14;;;;;;;9.55;2.10;;;;;;;;;;5092066;28;20028;-69
2021/08/31 13:22:40;;;;;;;9.45;1.95;;;;;;;;;;5091793;28;20024;-71
2021/08/31 13:25:08;;;;;;;6.10;1.85;;;;;;;;;;5092933;28;20019;-70
2021/08/31 13:27:34;;;;;;;7.75;2.45;;;;;;;;;;5092980;28;20020;-70
2021/08/31 13:30:00;;;;;;;6.47;2.40;;;;;;;;;;5093066;28;20020;-71
2021/08/31 13:32:26;;;;;;;5.30;1.70;;;;;;;;;;5092845;28;20097;-69
2021/08/31 13:34:52;;;;;;;4.78;1.90;;;;;;;;;;5093064;28;20409;-70
2021/08/31 13:37:18;;;;;;;5.60;1.95;;;;;;;;;;5091818;28;20051;-70
2021/08/31 13:39:44;;;;;;;5.40;1.90;;;;;;;;;;5092726;28;20077;-70
2021/08/31 13:42:10;;;;;;;6.05;1.50;;;;;;;;;;5090790;28;20031;-70
2021/08/31 13:44:37;;;;;;;6.90;1.70;;;;;;;;;;5092854;28;20021;-71
2021/08/31 13:47:03;;;;;;;3.50;1.67;;;;;;;;;;5091717;28;20445;-70
2021/08/31 13:49:29;;;;;;;3.30;1.38;;;;;;;;;;5091468;28;20077;-70
2021/08/31 13:51:57;;;;;;;4.40;1.67;;;;;;;;;;5082210;28;20044;-69
2021/08/31 13:54:23;;;;;;;4.07;1.35;;;;;;;;;;5091016;28;20110;-69
2021/08/31 13:56:49;;;;;;;3.38;1.40;;;;;;;;;;5092224;28;20407;-69
2021/08/31 13:59:15;;;;;;;3.13;1.00;;;;;;;;;;5092408;28;20085;-69
2021/08/31 14:01:41;;;;;;;4.50;1.30;;;;;;;;;;5091066;28;20325;-69
2021/08/31 14:04:07;;;;;;;2.72;1.10;;;;;;;;;;5092469;28;20027;-69
2021/08/31 14:06:33;;;;;;;3.92;1.35;;;;;;;;;;5092559;28;20024;-69
2021/08/31 14:08:59;;;;;;;3.53;0.98;;;;;;;;;;5092458;28;20012;-70
2021/08/31 14:11:26;;;;;;;3.13;1.00;;;;;;;;;;5092212;28;20024;-70
2021/08/31 14:13:52;;;;;;;2.35;1.20;;;;;;;;;;5092342;28;20421;-71
2021/08/31 14:16:18;;;;;;;3.72;1.13;;;;;;;;;;5092460;28;20144;-71
2021/08/31 14:18:45;;;;;;;1.88;0.95;;;;;;;;;;5092205;28;20170;-70
2021/08/31 14:21:11;;;;;;;2.00;1.00;;;;;;;;;;5091026;28;20036;-69
2021/08/31 14:23:38;;;;;;;3.20;1.08;;;;;;;;;;5090815;28;20012;-72
2021/08/31 14:26:04;;;;;;;2.40;0.93;;;;;;;;;;5091653;28;20081;-71
2021/08/31 14:28:30;;;;;;;1.80;0.82;;;;;;;;;;5085404;28;20021;-71
2021/08/31 14:30:56;;;;;;;10.88;1.20;;;;;;;;;;5072169;28;20032;-71
2021/08/31 14:33:22;;;;;;;5.70;1.17;;;;;;;;;;5072169;28;20114;-70
2021/08/31 14:35:48;;;;;;;4.20;1.20;;;;;;;;;;5072009;28;20048;-71
2021/08/31 14:38:14;;;;;;;6.63;1.02;;;;;;;;;;5069890;28;20067;-71
2021/08/31 14:40:40;;;;;;;11.60;1.45;;;;;;;;;;5054191;28;20037;-71
2021/08/31 14:43:06;;;;;;;5.32;1.17;;;;;;;;;;5060870;28;20119;-71
2021/08/31 14:45:32;;;;;;;12.85;1.95;;;;;;;;;;5070334;28;20025;-71